Tiempo atmosférico en la estación meteorológica de Arganda Del Rey, Madrid (533 m.)



Fecha
DESCASC
Temp. máxima en grados centígrados (hora)
DESCASC
Temp. mínima en grados centígrados (hora)
DESCASC
Temp. media en grados centígrados
DESCASC
Racha de viento máxima en m/sg (hora)
DESCASC
Velocidad máxima media en intervalos de 10 minutos(hora)
DESCASC
Precipitaciones diarias en mm
DESCASC
Precipitaciones de 00:00 a 06:00 en mm
DESCASC
Precipitaciones de 06:00 a 12:00 en mm
DESCASC
Precipitaciones de 12:00 a 18:00 en mm
DESCASC
Precipitaciones de 18:00 a 24:00 en mm
DESCASC
18-10-2018 21.6 (14:30) 11.8 (00:30) 16.7 10.28 (17:40) 6.11 (17:40) 3.4 0 0 0 3.4
17-10-2018 23.4 (16:40) 7.5 (06:30) 15.4 6.11 (16:00) 3.61 (18:30) 0 0 0 0 0
16-10-2018 23.7 (18:20) 9.3 (08:40) 16.5 5.28 (14:50) 2.78 (14:50) 0 0 0 0 0
15-10-2018 15.8 (14:50) 7.6 (08:00) 11.7 8.33 (15:40) 6.11 (15:40) 0.4 0 0 0.4 0
14-10-2018 21 (00:00) 10.8 (00:00) 15.9 11.94 (08:10) 8.33 (08:20) 4.4 0 4.4 0 0
13-10-2018 28.1 (18:10) 12.8 (00:00) 20.5 7.5 (16:20) 4.72 (16:40) 0 0 0 0 0
12-10-2018 23.9 (18:00) 15.4 (00:00) 19.6 6.67 (14:10) 4.17 (14:10) 0 0 0 0 0
11-10-2018 23.3 (18:00) 12.6 (04:30) 17.9 10 (17:10) 6.67 (16:20) 1 0 0.8 0.2 0
10-10-2018 22.4 (18:00) 12.4 (00:00) 17.4 5.56 (07:10) 3.61 (07:30) 0.6 0 0.6 0 0
09-10-2018 21.6 (15:30) 10.3 (06:50) 16 10 (18:30) 5.83 (18:30) 0 0 0 0 0
08-10-2018 21.4 (17:40) 6 (06:10) 13.7 10 (13:20) 4.72 (12:10) 0 0 0 0 0
07-10-2018 22.7 (17:50) 12 (08:10) 17.4 10.83 (05:50) 6.94 (05:50) 0 0 0 0 0
06-10-2018 29.1 (16:10) 8 (07:40) 18.6 12.78 (15:50) 7.78 (16:20) 0 0 0 0 0
05-10-2018 29.2 (17:00) 10.8 (06:40) 20 6.11 (17:40) 3.61 (16:50) 0 0 0 0 0
04-10-2018 29.7 (17:30) 10.6 (00:00) 20.2 5.83 (16:30) 3.61 (16:50) 0 0 0 0 0
03-10-2018 29 (17:40) 10.1 (00:00) 19.6 7.78 (01:20) 5 (01:50) 0 0 0 0 0
02-10-2018 28.6 (18:10) 6.5 (00:00) 17.6 10.56 (12:10) 6.11 (12:20) 0 0 0 0 0
01-10-2018 27.1 (17:40) 14.3 (00:00) 20.7 9.17 (15:20) 5 (16:20) 0 0 0 0 0
30-09-2018 31.3 (16:50) 11.3 (00:00) 21.3 6.11 (16:40) 2.78 (16:40) 0 0 0 0 0
29-09-2018 30.8 (17:00) 12 (00:00) 21.4 4.44 (14:10) 2.22 (14:20) 0 0 0 0 0
28-09-2018 30.6 (18:40) 13 (00:00) 21.8 7.78 (14:20) 3.61 (16:20) 0 0 0 0 0
27-09-2018 29.6 (16:30) 14.4 (00:00) 22 7.5 (00:10) 3.89 (18:20) 0 0 0 0 0
26-09-2018 29.8 (17:40) 20 (00:00) 24.9 10 (19:30) 7.5 (19:30) 0 0 0 0 0
25-09-2018 32.8 (18:00) 15.9 (00:00) 24.3 10.28 (22:50) 6.67 (22:50) 0 0 0 0 0
24-09-2018 34.7 (17:30) 19.5 (00:00) 27.1 7.22 (06:30) 3.89 (10:00) 0 0 0 0 0
23-09-2018 35.1 (17:50) 16.2 (08:00) 25.6 5.28 (16:10) 2.78 (15:20) 0 0 0 0 0
22-09-2018 34.4 (17:00) 16.6 (07:50) 25.5 6.67 (15:40) 3.61 (15:50) 0 0 0 0 0

Gráficas

Temp. máximas Temp. mínimas Temp. medias Precipitaciones Rachas de viento máximas Velocidades máximas media en intervalos de 10 minutos

Datos horarios

Fecha y hora oficial Temperatura (ºC) Velocidad del viento (km/h) Dirección del viento Racha (km/h) Dirección de racha Precipitación (mm) Presión (hPa) Tendencia (hPa) Humedad (%)
2018-10-21 23:00:00 14.3 0 Calma 5 Nordeste 0 -- -- 86
2018-10-21 22:00:00 15.4 3 Nordeste 5 Nordeste 0 -- -- 84
2018-10-21 21:00:00 17.3 0 Calma 10 Nordeste 0 -- -- 75
2018-10-21 20:00:00 18.8 6 Nordeste 18 Nordeste 0 -- -- 70
2018-10-21 19:00:00 20.4 6 Nordeste 15 Norte 0 -- -- 69
2018-10-21 18:00:00 21.5 8 Norte 15 Nordeste 0 -- -- 65
2018-10-21 17:00:00 21.4 7 Nordeste 17 Este 0 -- -- 63
2018-10-21 16:00:00 21.3 8 Este 20 Este 0 -- -- 65
2018-10-21 15:00:00 21.1 5 Nordeste 16 Este 0 -- -- 64
2018-10-21 14:00:00 19.5 10 Norte 18 Norte 0 -- -- 71
2018-10-21 13:00:00 20.3 9 Norte 20 Norte 0 -- -- 72
2018-10-21 12:00:00 18.8 9 Norte 19 Norte 0 -- -- 74
2018-10-21 11:00:00 16.9 9 Nordeste 21 Nordeste 0 -- -- 80
2018-10-21 10:00:00 15.7 8 Nordeste 17 Nordeste 0 -- -- 84
2018-10-21 09:00:00 14.8 9 Nordeste 18 Nordeste 0 -- -- 86
2018-10-21 08:00:00 14.7 6 Nordeste 19 Nordeste 0 -- -- 85
2018-10-21 07:00:00 14.7 7 Nordeste 21 Este 0 -- -- 86
2018-10-21 06:00:00 14.5 11 Nordeste 19 Nordeste 0 -- -- 88
2018-10-21 05:00:00 14.8 11 Nordeste 24 Nordeste 0 -- -- 86
2018-10-21 04:00:00 15.1 10 Nordeste 21 Nordeste 0 -- -- 85
2018-10-21 03:00:00 15.1 7 Nordeste 15 Norte 0 -- -- 86
2018-10-21 02:00:00 15.3 6 Nordeste 14 Norte 0.8 -- -- 87
2018-10-21 01:00:00 15.4 5 Nordeste 12 Nordeste 0.2 -- -- 89
2018-10-21 00:00:00 15.2 3 Nordeste 5 Este 0 -- -- 89
2018-10-20 23:00:00 16.3 2 Nordeste 10 Nordeste 0 -- -- 86
2018-10-20 22:00:00 16.8 3 Sudoeste 6 Norte 0 -- -- 87
2018-10-20 21:00:00 17.4 3 Norte 9 Este 0 -- -- 84
2018-10-20 20:00:00 17.5 5 Nordeste 15 Nordeste 0 -- -- 82
2018-10-20 19:00:00 18.7 9 Nordeste 21 Nordeste 0.2 -- -- 74
2018-10-20 18:00:00 20.5 6 Este 19 Este 0.6 -- -- 67
2018-10-20 17:00:00 20.9 9 Este 27 Sudeste 0 -- -- 58
2018-10-20 16:00:00 21.4 16 Nordeste 37 Nordeste 0 -- -- 60
2018-10-20 15:00:00 21.3 16 Sudeste 31 Este 0 -- -- 58
2018-10-20 14:00:00 21.2 19 Este 37 Este 0 -- -- 59
2018-10-20 13:00:00 20.5 18 Este 33 Este 0 -- -- 61
2018-10-20 12:00:00 18.4 9 Nordeste 20 Nordeste 0 -- -- 74
2018-10-20 11:00:00 16.3 9 Nordeste 19 Norte 0 -- -- 80
2018-10-20 10:00:00 15.3 7 Nordeste 15 Nordeste 0 -- -- 84
2018-10-20 09:00:00 14.2 8 Nordeste 14 Nordeste 0 -- -- 85
2018-10-20 08:00:00 13.8 7 Nordeste 14 Nordeste 0 -- -- 86
2018-10-20 07:00:00 13.1 2 Norte 8 Norte 0 -- -- 89
2018-10-20 06:00:00 13.2 2 Noroeste 15 Norte 0 -- -- 89
2018-10-20 05:00:00 14.1 5 Nordeste 12 Norte 0 -- -- 85
2018-10-20 04:00:00 14.2 6 Nordeste 14 Nordeste 0 -- -- 87
2018-10-20 03:00:00 14.2 8 Nordeste 15 Nordeste 0 -- -- 89
2018-10-20 02:00:00 14.2 8 Norte 19 Nordeste 0 -- -- 89
2018-10-20 01:00:00 14.4 9 Nordeste 20 Nordeste 0.2 -- -- 88
2018-10-20 00:00:00 14.8 8 Nordeste 13 Nordeste 0.2 -- -- 85
2018-10-19 23:00:00 14.8 6 Nordeste 18 Norte 0 -- -- 86
2018-10-19 22:00:00 14.9 6 Nordeste 23 Norte 0 -- -- 86
2018-10-19 21:00:00 15 7 Norte 17 Nordeste 0 -- -- 88
2018-10-19 20:00:00 15.1 10 Nordeste 17 Norte 0 -- -- 87
2018-10-19 19:00:00 15.5 6 Nordeste 17 Nordeste 0 -- -- 87
2018-10-19 18:00:00 16.3 11 Norte 17 Nordeste 0.6 -- -- 91
2018-10-19 17:00:00 16.6 5 Nordeste 11 Norte 1.2 -- -- 91
2018-10-19 16:00:00 16.2 5 Norte 23 Nordeste 1.4 -- -- 89
2018-10-19 15:00:00 17.8 13 Nordeste 23 Nordeste 0 -- -- 80
2018-10-19 14:00:00 17.4 12 Nordeste 31 Norte 0 -- -- 80
2018-10-19 13:00:00 18.6 12 Nordeste 22 Norte 0 -- -- 75
2018-10-19 12:00:00 17 13 Norte 19 Norte 0 -- -- 82
2018-10-19 11:00:00 15.3 6 Nordeste 17 Nordeste 0 -- -- 85
2018-10-19 10:00:00 14.3 7 Nordeste 19 Nordeste 0 -- -- 88
2018-10-19 09:00:00 13.4 9 Nordeste 23 Norte 0 -- -- 89
2018-10-19 08:00:00 13.3 10 Nordeste 22 Nordeste 0 -- -- 90
2018-10-19 07:00:00 13.6 10 Norte 17 Norte 0.4 -- -- 89
2018-10-19 06:00:00 13.8 2 Nordeste 17 Norte 0.2 -- -- 88
2018-10-19 05:00:00 14.3 6 Nordeste 19 Nordeste 0.2 -- -- 89
2018-10-19 04:00:00 14.4 6 Norte 27 Norte 0 -- -- 86
2018-10-19 03:00:00 14.4 12 Nordeste 27 Nordeste 0 -- -- 89
2018-10-19 02:00:00 14.5 13 Nordeste 26 Nordeste 0 -- -- 91
2018-10-19 01:00:00 14.3 7 Norte 23 Norte 0.8 -- -- 93
2018-10-19 00:00:00 14.3 17 Norte 35 Nordeste 1.8 -- -- 91
2018-10-18 23:00:00 14.6 18 Nordeste 34 Norte 1.6 -- -- 88
2018-10-18 22:00:00 16.4 14 Nordeste 31 Nordeste 0 -- -- 76
2018-10-18 21:00:00 17.3 12 Nordeste 26 Nordeste 0 -- -- 66
2018-10-18 20:00:00 16.9 4 Este 23 Este 0 -- -- 69
2018-10-18 19:00:00 17.7 13 Este 28 Este 0 -- -- 66
2018-10-18 18:00:00 19.8 10 Nordeste 37 Este 0 -- -- 51
2018-10-18 17:00:00 20.8 19 Nordeste 31 Este 0 -- -- 49
2018-10-18 16:00:00 20.9 14 Nordeste 27 Este 0 -- -- 48
2018-10-18 15:00:00 21.1 15 Este 25 Nordeste 0 -- -- 45
2018-10-18 14:00:00 21.1 12 Este 21 Este 0 -- -- 45
2018-10-18 13:00:00 19.4 9 Nordeste 19 Nordeste 0 -- -- 56
2018-10-18 12:00:00 18.2 9 Norte 18 Norte 0 -- -- 60
2018-10-18 11:00:00 15.7 5 Nordeste 9 Nordeste 0 -- -- 71
2018-10-18 10:00:00 14.4 0 Calma 11 Nordeste 0 -- -- 72
2018-10-18 09:00:00 13.8 4 Nordeste 8 Nordeste 0 -- -- 71
2018-10-18 08:00:00 13.7 5 Norte 8 Norte 0 -- -- 71
2018-10-18 07:00:00 14 0 Calma 12 Nordeste 0 -- -- 69
2018-10-18 06:00:00 14 6 Nordeste 12 Nordeste 0 -- -- 69
2018-10-18 05:00:00 14.5 5 Nordeste 10 Norte 0 -- -- 67
2018-10-18 04:00:00 14.7 8 Nordeste 16 Norte 0 -- -- 66
2018-10-18 03:00:00 14.5 4 Nordeste 8 Nordeste 0 -- -- 66
2018-10-18 02:00:00 13.2 4 Nordeste 6 Norte 0 -- -- 74
2018-10-18 01:00:00 11.9 0 Calma 5 Nordeste 0 -- -- 75
2018-10-18 00:00:00 12.5 2 Nordeste 8 Nordeste 0 -- -- 73
2018-10-17 23:00:00 12.9 0 Calma 4 Nordeste 0 -- -- 69
2018-10-17 22:00:00 14.4 0 Calma 3 Nordeste 0 -- -- 63
2018-10-17 21:00:00 15.8 0 Calma 4 Sudoeste 0 -- -- 59
2018-10-17 20:00:00 19 3 Sudoeste 9 Sudoeste 0 -- -- 49
2018-10-17 19:00:00 21.9 9 Sudoeste 19 Sudoeste 0 -- -- 41
2018-10-17 18:00:00 23 13 Sudoeste 21 Sudoeste 0 -- -- 39
2018-10-17 17:00:00 23.2 9 Sudoeste 18 Oeste 0 -- -- 40
2018-10-17 16:00:00 23.1 13 Sudoeste 22 Sudoeste 0 -- -- 41
2018-10-17 15:00:00 22.2 8 Oeste 17 Oeste 0 -- -- 45
2018-10-17 14:00:00 20.7 7 Oeste 14 Oeste 0 -- -- 48
2018-10-17 13:00:00 19.3 2 Noroeste 8 Sur 0 -- -- 58
2018-10-17 12:00:00 17.5 4 Este 9 Nordeste 0 -- -- 64
2018-10-17 11:00:00 14.6 3 Sur 6 Sur 0 -- -- 70
2018-10-17 10:00:00 11.8 0 Calma 10 Este 0 -- -- 80
2018-10-17 09:00:00 9.1 5 Este 9 Este 0 -- -- 88
2018-10-17 08:00:00 8.8 4 Nordeste 8 Este 0 -- -- 89
2018-10-17 07:00:00 8 3 Este 5 Este 0 -- -- 90
2018-10-17 06:00:00 7.7 0 Calma 5 Este 0 -- -- 85
2018-10-17 05:00:00 8.5 0 Calma 7 Nordeste 0 -- -- 85
2018-10-17 04:00:00 9.8 3 Este 6 Este 0 -- -- 83
2018-10-17 03:00:00 10.6 3 Oeste 11 Este 0 -- -- 79
2018-10-17 02:00:00 11.4 6 Este 9 Este 0 -- -- 79
2018-10-17 01:00:00 12.1 3 Este 8 Este 0 -- -- 76
2018-10-17 00:00:00 12.5 5 Nordeste 8 Nordeste 0 -- -- 76
2018-10-16 23:00:00 12.7 4 Este 8 Nordeste 0 -- -- 72
2018-10-16 22:00:00 14 2 Nordeste 4 Nordeste 0 -- -- 69
2018-10-16 21:00:00 16.3 0 Calma 4 Sudeste 0 -- -- 62
2018-10-16 20:00:00 19 2 Noroeste 5 Noroeste 0 -- -- 51
2018-10-16 19:00:00 22.7 3 Oeste 12 Oeste 0 -- -- 43
2018-10-16 18:00:00 23.4 3 Noroeste 15 Oeste 0 -- -- 41
2018-10-16 17:00:00 22.9 6 Sudoeste 14 Sudoeste 0 -- -- 41
2018-10-16 16:00:00 22.2 5 Sudoeste 17 Oeste 0 -- -- 44
2018-10-16 15:00:00 21.3 10 Oeste 19 Oeste 0 -- -- 48
2018-10-16 14:00:00 20.4 4 Nordeste 12 Sudeste 0 -- -- 51
2018-10-16 13:00:00 18.6 4 Este 12 Norte 0 -- -- 60
2018-10-16 12:00:00 16.6 6 Norte 15 Nordeste 0 -- -- 68
2018-10-16 11:00:00 14.4 10 Nordeste 15 Nordeste 0 -- -- 74
2018-10-16 10:00:00 12.2 3 Nordeste 9 Norte 0 -- -- 88
2018-10-16 09:00:00 9.6 0 Calma 6 Nordeste 0 -- -- 93
2018-10-16 08:00:00 9.6 3 Nordeste 4 Nordeste 0 -- -- 91
2018-10-16 07:00:00 10.4 0 Calma 6 Este 0 -- -- 91
2018-10-16 06:00:00 10.7 3 Nordeste 9 Este 0 -- -- 90
2018-10-16 05:00:00 10.6 4 Nordeste 9 Nordeste 0 -- -- 92
2018-10-16 04:00:00 9.9 3 Nordeste 5 Norte 0 -- -- 91
2018-10-16 03:00:00 10.3 4 Nordeste 7 Norte 0 -- -- 91
2018-10-16 02:00:00 10.1 0 Calma 4 Sur 0 -- -- 88
2018-10-16 01:00:00 11.6 2 Este 8 Este 0 -- -- 86
2018-10-16 00:00:00 12.3 0 Calma 8 Nordeste 0 -- -- 85
2018-10-15 23:00:00 12.2 5 Nordeste 9 Nordeste 0 -- -- 86
2018-10-15 22:00:00 12.1 2 Este 5 Sudeste 0 -- -- 87
2018-10-15 21:00:00 12.6 0 Calma 6 Oeste 0 -- -- 85
2018-10-15 20:00:00 13.1 6 Sudoeste 9 Sudoeste 0 -- -- 83
2018-10-15 19:00:00 13.7 2 Noroeste 5 Noroeste 0 -- -- 81
2018-10-15 18:00:00 13.8 0 Calma 18 Sudeste 0 -- -- 78
2018-10-15 17:00:00 13.9 10 Sur 22 Sur 0 -- -- 84
2018-10-15 16:00:00 13 9 Sudoeste 30 Sudoeste 0.4 -- -- 84
2018-10-15 15:00:00 15.8 17 Sudoeste 29 Sudoeste 0 -- -- 62
2018-10-15 14:00:00 15.3 17 Sudoeste 27 Sudoeste 0 -- -- 58
2018-10-15 13:00:00 14.5 16 Sudoeste 28 Sudoeste 0 -- -- 60
2018-10-15 12:00:00 12.7 14 Sudoeste 21 Sur 0 -- -- 73
2018-10-15 11:00:00 11.1 12 Sur 21 Sudoeste 0 -- -- 81
2018-10-15 10:00:00 9.6 8 Sudoeste 15 Sudoeste 0 -- -- 86
2018-10-15 09:00:00 8.6 9 Sudoeste 16 Sudoeste 0 -- -- 89
2018-10-15 08:00:00 7.6 6 Sudoeste 15 Sudoeste 0 -- -- 88
2018-10-15 07:00:00 8.1 5 Sudoeste 13 Sur 0 -- -- 83
2018-10-15 06:00:00 8.1 3 Oeste 10 Sur 0 -- -- 85
2018-10-15 05:00:00 8.1 3 Sudoeste 9 Sudoeste 0 -- -- 86
2018-10-15 04:00:00 8.6 2 Sudeste 5 Norte 0 -- -- 86
2018-10-15 03:00:00 8.9 2 Sur 5 Sudeste 0 -- -- 83
2018-10-15 02:00:00 9.8 3 Este 8 Sur 0 -- -- 80
2018-10-15 01:00:00 11.4 4 Oeste 13 Sudoeste 0 -- -- 73
2018-10-15 00:00:00 10.9 8 Oeste 11 Oeste 0 -- -- 76
2018-10-14 23:00:00 11.8 3 Sudoeste 15 Oeste 0 -- -- 69
2018-10-14 22:00:00 13.2 12 Oeste 18 Oeste 0 -- -- 65
2018-10-14 21:00:00 13.7 6 Noroeste 24 Oeste 0 -- -- 61
2018-10-14 20:00:00 14 12 Oeste 31 Oeste 0 -- -- 62
2018-10-14 19:00:00 16 21 Oeste 35 Oeste 0 -- -- 54
2018-10-14 18:00:00 15.6 24 Oeste 35 Oeste 0 -- -- 56
2018-10-14 17:00:00 16.4 15 Oeste 33 Oeste 0 -- -- 55
2018-10-14 16:00:00 15.5 19 Oeste 31 Oeste 0 -- -- 58
2018-10-14 15:00:00 15.1 17 Oeste 36 Oeste 0 -- -- 64
2018-10-14 14:00:00 13.9 16 Sudoeste 35 Oeste 0 -- -- 75
2018-10-14 13:00:00 14.2 21 Sudoeste 38 Sudoeste 0 -- -- 81
2018-10-14 12:00:00 13.9 28 Sudoeste 39 Oeste 0 -- -- 81
2018-10-14 11:00:00 14.4 18 Sudoeste 31 Sudoeste 0 -- -- 86
2018-10-14 10:00:00 15.6 21 Sudoeste 35 Sur 0 -- -- 81
2018-10-14 09:00:00 15.6 19 Sur 43 Sudeste 0 -- -- 77
2018-10-14 08:00:00 15.4 22 Sudeste 39 Oeste 4.4 -- -- 88
2018-10-14 07:00:00 18.9 15 Sur 24 Sur 0 -- -- 68
2018-10-14 06:00:00 19 12 Sudoeste 28 Sur 0 -- -- 68
2018-10-14 05:00:00 19.5 8 Sudoeste 26 Sudeste 0 -- -- 65
2018-10-14 04:00:00 19 9 Sudeste 29 Sur 0 -- -- 68
2018-10-14 03:00:00 19.5 21 Sudeste 36 Sudeste 0 -- -- 64
2018-10-14 02:00:00 19.4 16 Sudeste 27 Sudeste 0 -- -- 67
2018-10-14 01:00:00 20.1 15 Sudeste 29 Sudeste 0 -- -- 63
2018-10-14 00:00:00 21 14 Sudeste 24 Sudeste 0 -- -- 57
2018-10-13 23:00:00 18.3 0 Calma 5 Este 0 -- -- 60
2018-10-13 22:00:00 19.4 3 Norte 5 Norte 0 -- -- 57
2018-10-13 21:00:00 20.8 4 Este 7 Este 0 -- -- 54
2018-10-13 20:00:00 23.7 0 Calma 5 Oeste 0 -- -- 48
2018-10-13 19:00:00 27.6 3 Oeste 19 Sudoeste 0 -- -- 41
2018-10-13 18:00:00 27.9 5 Oeste 21 Oeste 0 -- -- 41
2018-10-13 17:00:00 27.9 16 Oeste 27 Sudoeste 0 -- -- 40
2018-10-13 16:00:00 27.4 14 Sudoeste 24 Sudoeste 0 -- -- 40
2018-10-13 15:00:00 26.1 5 Sudoeste 16 Oeste 0 -- -- 49
2018-10-13 14:00:00 25.3 5 Noroeste 12 Oeste 0 -- -- 52
2018-10-13 13:00:00 23.1 4 Noroeste 9 Oeste 0 -- -- 57
2018-10-13 12:00:00 20.9 2 Norte 8 Este 0 -- -- 65
2018-10-13 11:00:00 18.1 2 Este 9 Este 0 -- -- 77
2018-10-13 10:00:00 16.1 4 Este 9 Este 0 -- -- 85
2018-10-13 09:00:00 13.8 0 Calma 12 Este 0 -- -- 92
2018-10-13 08:00:00 13.4 5 Este 8 Nordeste 0 -- -- 92
2018-10-13 07:00:00 12.9 2 Este 6 Este 0 -- -- 90
2018-10-13 06:00:00 13.1 3 Nordeste 5 Nordeste 0 -- -- 90
2018-10-13 05:00:00 13.5 2 Nordeste 6 Este 0 -- -- 88
2018-10-13 04:00:00 14 2 Nordeste 5 Norte 0 -- -- 87
2018-10-13 03:00:00 14.7 4 Nordeste 7 Nordeste 0 -- -- 86
2018-10-13 02:00:00 15.2 4 Este 6 Nordeste 0 -- -- 85
2018-10-13 01:00:00 16.1 4 Nordeste 8 Nordeste 0 -- -- 83
2018-10-13 00:00:00 15.6 4 Nordeste 6 Este 0 -- -- 82
2018-10-12 23:00:00 16.6 3 Nordeste 6 Nordeste 0 -- -- 79
2018-10-12 22:00:00 17.1 2 Nordeste 5 Nordeste 0 -- -- 77
2018-10-12 21:00:00 18.5 0 Calma 4 Sur 0 -- -- 72
2018-10-12 20:00:00 20.5 3 Nordeste 5 Noroeste 0 -- -- 66
2018-10-12 19:00:00 22.9 0 Calma 12 Noroeste 0 -- -- 59
2018-10-12 18:00:00 23.9 5 Noroeste 13 Noroeste 0 -- -- 58
2018-10-12 17:00:00 23.6 6 Noroeste 16 Oeste 0 -- -- 58
2018-10-12 16:00:00 23.5 7 Oeste 15 Sudoeste 0 -- -- 60
2018-10-12 15:00:00 22.1 8 Noroeste 24 Noroeste 0 -- -- 69
2018-10-12 14:00:00 21.2 12 Oeste 20 Sudoeste 0 -- -- 72
2018-10-12 13:00:00 20.7 11 Oeste 18 Oeste 0 -- -- 70
2018-10-12 12:00:00 20.6 13 Sudoeste 20 Sur 0 -- -- 71
2018-10-12 11:00:00 19.7 8 Sudoeste 17 Sur 0 -- -- 76
2018-10-12 10:00:00 17.8 3 Sudoeste 9 Sudoeste 0 -- -- 85
2018-10-12 09:00:00 16.4 2 Oeste 6 Sur 0 -- -- 89
2018-10-12 08:00:00 16.8 0 Calma 7 Sudoeste 0 -- -- 89
2018-10-12 07:00:00 17.1 5 Sudoeste 11 Sudoeste 0 -- -- 87
2018-10-12 06:00:00 17.4 10 Sudoeste 20 Sudoeste 0 -- -- 84
2018-10-12 05:00:00 18.1 11 Sudoeste 22 Sur 0 -- -- 78
2018-10-12 04:00:00 18.5 13 Sur 21 Sur 0 -- -- 75
2018-10-12 03:00:00 18.1 4 Oeste 9 Sur 0 -- -- 83
2018-10-12 02:00:00 18.3 3 Sur 9 Sur 0 -- -- 84
2018-10-12 01:00:00 18.4 0 Calma 12 Sur 0 -- -- 83
2018-10-12 00:00:00 18.7 8 Sudoeste 15 Sudoeste 0 -- -- 80
2018-10-11 23:00:00 18.8 8 Sudoeste 11 Sudoeste 0 -- -- 74
2018-10-11 22:00:00 18.5 5 Sudoeste 10 Sudoeste 0 -- -- 75
2018-10-11 21:00:00 19.2 6 Sur 19 Sudoeste 0 -- -- 70
2018-10-11 20:00:00 20.8 13 Sudoeste 33 Sudoeste 0 -- -- 65
2018-10-11 19:00:00 22.5 18 Sudoeste 36 Sudoeste 0 -- -- 60
2018-10-11 18:00:00 23.3 23 Sudoeste 36 Sudoeste 0 -- -- 58
2018-10-11 17:00:00 22.8 20 Sudoeste 35 Sudoeste 0 -- -- 60
2018-10-11 16:00:00 22.6 20 Sur 29 Sur 0 -- -- 64
2018-10-11 15:00:00 21.9 16 Sudoeste 35 Sudoeste 0.2 -- -- 66
2018-10-11 14:00:00 21.5 21 Sur 31 Sur 0 -- -- 70
2018-10-11 13:00:00 19.4 17 Sur 26 Sur 0 -- -- 78
2018-10-11 12:00:00 18.2 13 Sur 24 Sudoeste 0.6 -- -- 82
2018-10-11 11:00:00 18.2 17 Sur 30 Sur 0 -- -- 79
2018-10-11 10:00:00 16.8 8 Sur 17 Sudoeste 0.2 -- -- 82
2018-10-11 09:00:00 15.8 0 Calma 16 Sur 0 -- -- 83
2018-10-11 08:00:00 14.4 3 Sudeste 7 Sudeste 0 -- -- 87
2018-10-11 07:00:00 13.6 3 Oeste 6 Oeste 0 -- -- 88
2018-10-11 06:00:00 13.3 0 Calma 3 Oeste 0 -- -- 88
2018-10-11 05:00:00 12.8 0 Calma 6 Oeste 0 -- -- 88
2018-10-11 04:00:00 12.8 0 Calma 4 Noroeste 0 -- -- 85
2018-10-11 03:00:00 13.2 4 Oeste 8 Sudoeste 0 -- -- 83
2018-10-11 02:00:00 14 0 Calma 8 Sudoeste 0 -- -- 82
2018-10-11 01:00:00 14.5 4 Sudoeste 5 Sudoeste 0 -- -- 78
2018-10-11 00:00:00 14.9 0 Calma 5 Norte 0 -- -- 79
2018-10-10 23:00:00 15.3 2 Nordeste 6 Sudoeste 0 -- -- 73
2018-10-10 22:00:00 16.7 3 Nordeste 8 Nordeste 0 -- -- 69
2018-10-10 21:00:00 17.9 5 Este 7 Este 0 -- -- 67
2018-10-10 20:00:00 19.3 3 Nordeste 5 Sudoeste 0 -- -- 60
2018-10-10 19:00:00 22.2 3 Noroeste 13 Sudoeste 0 -- -- 54
2018-10-10 18:00:00 22.4 5 Oeste 17 Oeste 0 -- -- 53
2018-10-10 17:00:00 21.4 9 Sudoeste 18 Oeste 0 -- -- 56
2018-10-10 16:00:00 20.2 10 Sudoeste 19 Sudoeste 0 -- -- 58
2018-10-10 15:00:00 20.4 7 Sur 20 Sudeste 0 -- -- 58
2018-10-10 14:00:00 18.4 13 Sur 20 Sur 0 -- -- 65
2018-10-10 13:00:00 18.5 4 Sudoeste 12 Oeste 0 -- -- 65
2018-10-10 12:00:00 15.9 2 Este 11 Noroeste 0.2 -- -- 79
2018-10-10 11:00:00 14.1 4 Sudoeste 15 Sudoeste 0.4 -- -- 84
2018-10-10 10:00:00 14.7 9 Sur 15 Sur 0 -- -- 76
2018-10-10 09:00:00 14.2 7 Sur 14 Sudeste 0 -- -- 77
2018-10-10 08:00:00 14.2 10 Sudeste 20 Sudeste 0 -- -- 77
2018-10-10 07:00:00 14.2 8 Sudeste 18 Sudeste 0 -- -- 77
2018-10-10 06:00:00 13.7 4 Noroeste 7 Nordeste 0 -- -- 80
2018-10-10 05:00:00 13.4 3 Nordeste 10 Nordeste 0 -- -- 77
2018-10-10 04:00:00 12.8 2 Nordeste 10 Nordeste 0 -- -- 80
2018-10-10 03:00:00 12.7 4 Nordeste 12 Norte 0 -- -- 80
2018-10-10 02:00:00 13.4 5 Norte 16 Norte 0 -- -- 78
2018-10-10 01:00:00 13.2 9 Norte 18 Norte 0 -- -- 78
2018-10-10 00:00:00 13.4 5 Norte 18 Este 0 -- -- 75
2018-10-09 23:00:00 13.2 11 Nordeste 20 Nordeste 0 -- -- 74
2018-10-09 22:00:00 14.3 5 Este 27 Noroeste 0 -- -- 65
2018-10-09 21:00:00 14.5 16 Noroeste 30 Noroeste 0 -- -- 67
2018-10-09 20:00:00 16.2 6 Noroeste 16 Este 0 -- -- 60
2018-10-09 19:00:00 16.3 9 Nordeste 36 Este 0 -- -- 57
2018-10-09 18:00:00 19.3 12 Este 31 Este 0 -- -- 41
2018-10-09 17:00:00 20.8 10 Nordeste 35 Este 0 -- -- 39
2018-10-09 16:00:00 21.2 15 Este 32 Sudeste 0 -- -- 38
2018-10-09 15:00:00 21.1 12 Este 26 Este 0 -- -- 39
2018-10-09 14:00:00 21 15 Este 27 Nordeste 0 -- -- 39
2018-10-09 13:00:00 19.6 13 Este 26 Sudeste 0 -- -- 42
2018-10-09 12:00:00 17.5 7 Este 15 Este 0 -- -- 49
2018-10-09 11:00:00 14.4 6 Norte 13 Norte 0 -- -- 58
2018-10-09 10:00:00 12.8 3 Norte 13 Nordeste 0 -- -- 62
2018-10-09 09:00:00 11.1 5 Nordeste 10 Nordeste 0 -- -- 67
2018-10-09 08:00:00 10.6 4 Nordeste 9 Nordeste 0 -- -- 67
2018-10-09 07:00:00 10.4 2 Nordeste 7 Norte 0 -- -- 68
2018-10-09 06:00:00 10.9 4 Nordeste 13 Nordeste 0 -- -- 65
2018-10-09 05:00:00 11.2 6 Nordeste 14 Norte 0 -- -- 64
2018-10-09 04:00:00 12.1 7 Nordeste 15 Norte 0 -- -- 61
2018-10-09 03:00:00 11.2 6 Nordeste 12 Nordeste 0 -- -- 64
2018-10-09 02:00:00 12.4 6 Nordeste 13 Nordeste 0 -- -- 59
2018-10-09 01:00:00 12.1 3 Este 9 Este 0 -- -- 58
2018-10-09 00:00:00 13.9 6 Nordeste 10 Nordeste 0 -- -- 54
2018-10-08 23:00:00 13.8 3 Nordeste 9 Nordeste 0 -- -- 52
2018-10-08 22:00:00 14.5 5 Nordeste 9 Nordeste 0 -- -- 50
2018-10-08 21:00:00 15.9 4 Nordeste 12 Este 0 -- -- 46
2018-10-08 20:00:00 17.9 7 Nordeste 14 Este 0 -- -- 41
2018-10-08 19:00:00 19.8 8 Norte 21 Nordeste 0 -- -- 37
2018-10-08 18:00:00 20.8 12 Nordeste 25 Nordeste 0 -- -- 36
2018-10-08 17:00:00 21.1 9 Este 24 Este 0 -- -- 37
2018-10-08 16:00:00 20.3 10 Nordeste 21 Este 0 -- -- 38
2018-10-08 15:00:00 19.5 11 Nordeste 21 Este 0 -- -- 40
2018-10-08 14:00:00 18.6 13 Este 36 Este 0 -- -- 43
2018-10-08 13:00:00 18.5 9 Nordeste 28 Nordeste 0 -- -- 45
2018-10-08 12:00:00 17.3 13 Nordeste 21 Nordeste 0 -- -- 49
2018-10-08 11:00:00 14.6 4 Sudeste 12 Norte 0 -- -- 53
2018-10-08 10:00:00 11.6 2 Nordeste 4 Norte 0 -- -- 61
2018-10-08 09:00:00 6.9 0 Calma 6 Este 0 -- -- 70
2018-10-08 08:00:00 6.3 5 Este 8 Nordeste 0 -- -- 73
2018-10-08 07:00:00 6.5 4 Este 6 Este 0 -- -- 72
2018-10-08 06:00:00 6.1 2 Norte 5 Nordeste 0 -- -- 70
2018-10-08 05:00:00 7.1 5 Este 7 Sudeste 0 -- -- 67
2018-10-08 04:00:00 7.8 2 Sur 8 Nordeste 0 -- -- 62
2018-10-08 03:00:00 9.5 4 Este 9 Nordeste 0 -- -- 59
2018-10-08 02:00:00 10.8 4 Nordeste 15 Nordeste 0 -- -- 56
2018-10-08 01:00:00 12.5 9 Nordeste 20 Nordeste 0 -- -- 51
2018-10-08 00:00:00 13.2 11 Norte 26 Norte 0 -- -- 48
2018-10-07 23:00:00 14.1 16 Norte 28 Norte 0 -- -- 45
2018-10-07 22:00:00 14.6 9 Norte 20 Norte 0 -- -- 42
2018-10-07 21:00:00 15.8 13 Norte 26 Norte 0 -- -- 38
2018-10-07 20:00:00 17.4 13 Norte 26 Norte 0 -- -- 34
2018-10-07 19:00:00 20 12 Norte 25 Norte 0 -- -- 29
2018-10-07 18:00:00 22.4 12 Norte 24 Norte 0 -- -- 28
2018-10-07 17:00:00 22.2 9 Norte 20 Noroeste 0 -- -- 30
2018-10-07 16:00:00 21 9 Norte 28 Noroeste 0 -- -- 31
2018-10-07 15:00:00 20.3 12 Norte 35 Nordeste 0 -- -- 33
2018-10-07 14:00:00 19.3 15 Nordeste 29 Nordeste 0 -- -- 35
2018-10-07 13:00:00 17.6 15 Nordeste 34 Nordeste 0 -- -- 40
2018-10-07 12:00:00 16.4 17 Nordeste 34 Norte 0 -- -- 42
2018-10-07 11:00:00 14.8 18 Nordeste 30 Norte 0 -- -- 43
2018-10-07 10:00:00 13.2 16 Nordeste 30 Nordeste 0 -- -- 46
2018-10-07 09:00:00 12.2 15 Nordeste 30 Nordeste 0 -- -- 47
2018-10-07 08:00:00 12.1 11 Nordeste 29 Nordeste 0 -- -- 49
2018-10-07 07:00:00 13.5 13 Nordeste 33 Norte 0 -- -- 54
2018-10-07 06:00:00 14.4 20 Norte 39 Nordeste 0 -- -- 48
2018-10-07 05:00:00 14.9 11 Nordeste 26 Nordeste 0 -- -- 48
2018-10-07 04:00:00 15.6 6 Nordeste 18 Norte 0 -- -- 52
2018-10-07 03:00:00 16.2 9 Nordeste 17 Norte 0 -- -- 52
2018-10-07 02:00:00 16.2 0 Calma 11 Nordeste 0 -- -- 49
2018-10-07 01:00:00 17.9 6 Noroeste 12 Nordeste 0 -- -- 47
2018-10-07 00:00:00 20.4 5 Oeste 13 Oeste 0 -- -- 39
2018-10-06 23:00:00 21.3 5 Noroeste 20 Oeste 0 -- -- 34
2018-10-06 22:00:00 22.7 6 Noroeste 22 Oeste 0 -- -- 32
2018-10-06 21:00:00 24.1 15 Oeste 31 Oeste 0 -- -- 29
2018-10-06 20:00:00 25.2 19 Oeste 33 Oeste 0 -- -- 28
2018-10-06 19:00:00 27.2 20 Sudoeste 38 Sudoeste 0 -- -- 27
2018-10-06 18:00:00 28.5 24 Sudoeste 39 Sudoeste 0 -- -- 24
2018-10-06 17:00:00 29.1 23 Oeste 42 Sudoeste 0 -- -- 23
2018-10-06 16:00:00 29 27 Sudoeste 46 Sudoeste 0 -- -- 24
2018-10-06 15:00:00 27.9 15 Sudoeste 24 Sudoeste 0 -- -- 30
2018-10-06 14:00:00 25.8 12 Sudoeste 18 Sudoeste 0 -- -- 35
2018-10-06 13:00:00 23.2 10 Sudoeste 15 Sudoeste 0 -- -- 43
2018-10-06 12:00:00 21.2 6 Oeste 13 Sudoeste 0 -- -- 53
2018-10-06 11:00:00 18.1 4 Nordeste 10 Este 0 -- -- 57
2018-10-06 10:00:00 14.6 3 Nordeste 6 Este 0 -- -- 59
2018-10-06 09:00:00 10.9 4 Nordeste 8 Este 0 -- -- 68
2018-10-06 08:00:00 8 0 Calma 3 Este 0 -- -- 72
2018-10-06 07:00:00 8.4 0 Calma 4 Nordeste 0 -- -- 69
2018-10-06 06:00:00 9.3 0 Calma 3 Oeste 0 -- -- 68
2018-10-06 05:00:00 9.7 0 Calma 5 Sudeste 0 -- -- 61
2018-10-06 04:00:00 10.2 3 Este 7 Este 0 -- -- 61
2018-10-06 03:00:00 11.7 5 Nordeste 8 Nordeste 0 -- -- 60
2018-10-06 02:00:00 12.3 0 Calma 3 Sudeste 0 -- -- 54
2018-10-06 01:00:00 13 0 Calma 2 Oeste 0 -- -- 51
2018-10-06 00:00:00 14 0 Calma 2 Este 0 -- -- 50
2018-10-05 23:00:00 15.8 0 Calma 2 Nordeste 0 -- -- 47
2018-10-05 22:00:00 17.6 0 Calma 2 Sur 0 -- -- 43
2018-10-05 21:00:00 20.5 0 Calma 5 Sur 0 -- -- 38
2018-10-05 20:00:00 24.9 3 Oeste 14 Sudoeste 0 -- -- 31
2018-10-05 19:00:00 28 10 Sudoeste 21 Oeste 0 -- -- 26
2018-10-05 18:00:00 29 12 Sudoeste 22 Sudoeste 0 -- -- 26
2018-10-05 17:00:00 29.2 11 Sur 19 Sudoeste 0 -- -- 27
2018-10-05 16:00:00 28.6 9 Sudoeste 19 Sudoeste 0 -- -- 30
2018-10-05 15:00:00 26.9 8 Sudoeste 16 Sudoeste 0 -- -- 36
2018-10-05 14:00:00 25.8 5 Noroeste 14 Oeste 0 -- -- 41
2018-10-05 13:00:00 23.7 8 Nordeste 14 Este 0 -- -- 46
2018-10-05 12:00:00 21.6 4 Este 13 Este 0 -- -- 51
2018-10-05 11:00:00 19.4 5 Norte 10 Norte 0 -- -- 58
2018-10-05 10:00:00 15.8 4 Nordeste 9 Norte 0 -- -- 57
2018-10-05 09:00:00 12.3 5 Nordeste 9 Este 0 -- -- 63
2018-10-05 08:00:00 11.3 4 Este 8 Este 0 -- -- 65
2018-10-05 07:00:00 10.9 3 Este 6 Nordeste 0 -- -- 67
2018-10-05 06:00:00 11.4 0 Calma 4 Este 0 -- -- 68
2018-10-05 05:00:00 12.7 3 Nordeste 6 Norte 0 -- -- 70
2018-10-05 04:00:00 15.3 2 Noroeste 8 Sur 0 -- -- 64
2018-10-05 03:00:00 17.6 4 Sudoeste 14 Este 0 -- -- 58
2018-10-05 02:00:00 16.7 9 Sudeste 18 Sur 0 -- -- 50
2018-10-05 01:00:00 14 6 Nordeste 11 Este 0 -- -- 49
2018-10-05 00:00:00 14.5 3 Nordeste 6 Norte 0 -- -- 47
2018-10-04 23:00:00 15.8 0 Calma 3 Nordeste 0 -- -- 43
2018-10-04 22:00:00 17.5 0 Calma 4 Nordeste 0 -- -- 35
2018-10-04 21:00:00 21.1 2 Nordeste 6 Oeste 0 -- -- 35
2018-10-04 20:00:00 25.9 4 Sur 10 Sur 0 -- -- 27
2018-10-04 19:00:00 28.5 10 Sudoeste 15 Sudoeste 0 -- -- 23
2018-10-04 18:00:00 29.5 6 Sur 19 Sur 0 -- -- 23
2018-10-04 17:00:00 29.4 11 Sudoeste 21 Sudoeste 0 -- -- 24
2018-10-04 16:00:00 28.8 7 Sudoeste 18 Sudoeste 0 -- -- 25
2018-10-04 15:00:00 27.6 9 Sudoeste 17 Sudoeste 0 -- -- 27
2018-10-04 14:00:00 25.8 7 Oeste 12 Sur 0 -- -- 31
2018-10-04 13:00:00 24 4 Oeste 10 Este 0 -- -- 33
2018-10-04 12:00:00 21.6 3 Oeste 10 Nordeste 0 -- -- 37
2018-10-04 11:00:00 19 5 Este 12 Nordeste 0 -- -- 42
2018-10-04 10:00:00 15.7 5 Nordeste 9 Nordeste 0 -- -- 52
2018-10-04 09:00:00 11.8 3 Nordeste 7 Nordeste 0 -- -- 63
2018-10-04 08:00:00 10.8 5 Nordeste 9 Nordeste 0 -- -- 64
2018-10-04 07:00:00 11 5 Nordeste 10 Nordeste 0 -- -- 62
2018-10-04 06:00:00 10.6 3 Nordeste 6 Este 0 -- -- 62
2018-10-04 05:00:00 12.5 2 Este 8 Este 0 -- -- 57
2018-10-04 04:00:00 13.6 4 Nordeste 8 Nordeste 0 -- -- 54
2018-10-04 03:00:00 13.3 4 Este 7 Nordeste 0 -- -- 51
2018-10-04 02:00:00 12.1 0 Calma 3 Nordeste 0 -- -- 47
2018-10-04 01:00:00 13.1 0 Calma 7 Nordeste 0 -- -- 42
2018-10-04 00:00:00 15.8 4 Este 11 Nordeste 0 -- -- 36
2018-10-03 23:00:00 15.6 4 Nordeste 6 Nordeste 0 -- -- 38
2018-10-03 22:00:00 17.3 3 Nordeste 5 Nordeste 0 -- -- 38
2018-10-03 21:00:00 20 0 Calma 4 Oeste 0 -- -- 35
2018-10-03 20:00:00 24.9 4 Sudoeste 10 Sudoeste 0 -- -- 28
2018-10-03 19:00:00 28.1 8 Sudoeste 13 Oeste 0 -- -- 21
2018-10-03 18:00:00 28.9 5 Sudoeste 13 Sudoeste 0 -- -- 20
2018-10-03 17:00:00 28.7 8 Sudoeste 15 Sudoeste 0 -- -- 20
2018-10-03 16:00:00 28.2 3 Sur 15 Oeste 0 -- -- 21
2018-10-03 15:00:00 26.4 6 Sudoeste 15 Sudoeste 0 -- -- 22
2018-10-03 14:00:00 25.4 4 Noroeste 17 Oeste 0 -- -- 25
2018-10-03 13:00:00 23.2 8 Oeste 15 Sudoeste 0 -- -- 29
2018-10-03 12:00:00 21.4 3 Sudoeste 9 Sur 0 -- -- 30
2018-10-03 11:00:00 18.6 4 Nordeste 10 Nordeste 0 -- -- 39
2018-10-03 10:00:00 15.9 3 Este 6 Nordeste 0 -- -- 45
2018-10-03 09:00:00 12.6 4 Este 8 Este 0 -- -- 52
2018-10-03 08:00:00 10.4 0 Calma 6 Este 0 -- -- 54
2018-10-03 07:00:00 12.9 5 Nordeste 10 Nordeste 0 -- -- 48
2018-10-03 06:00:00 14.6 6 Nordeste 18 Norte 0 -- -- 44
2018-10-03 05:00:00 13.4 4 Sudeste 9 Nordeste 0 -- -- 45
2018-10-03 04:00:00 14.6 3 Oeste 12 Norte 0 -- -- 44
2018-10-03 03:00:00 17.4 7 Nordeste 28 Este 0 -- -- 38
2018-10-03 02:00:00 18.6 15 Nordeste 28 Este 0 -- -- 35
2018-10-03 01:00:00 18.4 14 Nordeste 24 Nordeste 0 -- -- 34
2018-10-03 00:00:00 13.2 4 Este 9 Nordeste 0 -- -- 39
2018-10-02 23:00:00 14.7 0 Calma 3 Sudoeste 0 -- -- 40
2018-10-02 22:00:00 18.2 2 Este 8 Este 0 -- -- 27
2018-10-02 21:00:00 20.3 4 Este 8 Este 0 -- -- 26
2018-10-02 20:00:00 24.5 3 Nordeste 12 Norte 0 -- -- 22
2018-10-02 19:00:00 27.9 3 Norte 16 Norte 0 -- -- 17
2018-10-02 18:00:00 28.1 11 Norte 21 Norte 0 -- -- 16
2018-10-02 17:00:00 27.5 12 Nordeste 20 Nordeste 0 -- -- 15
2018-10-02 16:00:00 27.2 10 Norte 27 Norte 0 -- -- 14
2018-10-02 15:00:00 25.8 14 Norte 28 Norte 0 -- -- 16
2018-10-02 14:00:00 24.2 12 Norte 28 Norte 0 -- -- 18
2018-10-02 13:00:00 21.7 15 Nordeste 38 Norte 0 -- -- 19
2018-10-02 12:00:00 19.8 21 Nordeste 38 Nordeste 0 -- -- 20
2018-10-02 11:00:00 15.5 2 Oeste 10 Oeste 0 -- -- 38
2018-10-02 10:00:00 11.7 7 Sudoeste 11 Sudoeste 0 -- -- 54
2018-10-02 09:00:00 7.7 4 Sur 7 Sudoeste 0 -- -- 65
2018-10-02 08:00:00 7.3 0 Calma 5 Norte 0 -- -- 64
2018-10-02 07:00:00 8 0 Calma 10 Nordeste 0 -- -- 57
2018-10-02 06:00:00 10.5 8 Nordeste 21 Nordeste 0 -- -- 54
2018-10-02 05:00:00 12.2 11 Nordeste 23 Nordeste 0 -- -- 44
2018-10-02 04:00:00 12.7 11 Nordeste 27 Norte 0 -- -- 44
2018-10-02 03:00:00 12.5 6 Nordeste 14 Nordeste 0 -- -- 49
2018-10-02 02:00:00 12.5 0 Calma 5 Este 0 -- -- 48
2018-10-02 01:00:00 14.9 3 Norte 15 Nordeste 0 -- -- 45
2018-10-02 00:00:00 16.3 5 Nordeste 14 Nordeste 0 -- -- 41
2018-10-01 23:00:00 17.1 5 Este 19 Nordeste 0 -- -- 35
2018-10-01 22:00:00 19.5 11 Nordeste 19 Nordeste 0 -- -- 30
2018-10-01 21:00:00 20.5 5 Nordeste 14 Nordeste 0 -- -- 27
2018-10-01 20:00:00 23.3 8 Nordeste 14 Nordeste 0 -- -- 23
2018-10-01 19:00:00 26.1 9 Nordeste 19 Este 0 -- -- 18
2018-10-01 18:00:00 26.8 11 Nordeste 27 Nordeste 0 -- -- 18
2018-10-01 17:00:00 26.9 14 Nordeste 31 Nordeste 0 -- -- 17
2018-10-01 16:00:00 26.4 17 Norte 33 Norte 0 -- -- 21
2018-10-01 15:00:00 26 14 Nordeste 27 Nordeste 0 -- -- 26
2018-10-01 14:00:00 24.7 14 Norte 27 Norte 0 -- -- 25
2018-10-01 13:00:00 22.9 14 Nordeste 27 Norte 0 -- -- 30
2018-10-01 12:00:00 21.4 13 Norte 24 Norte 0 -- -- 33
2018-10-01 11:00:00 19.1 12 Norte 28 Norte 0 -- -- 38
2018-10-01 10:00:00 16.9 13 Norte 23 Nordeste 0 -- -- 38
2018-10-01 09:00:00 14.9 7 Norte 18 Norte 0 -- -- 36
2018-10-01 08:00:00 14.6 6 Norte 19 Norte 0 -- -- 36
2018-10-01 07:00:00 15.4 10 Nordeste 20 Nordeste 0 -- -- 34
2018-10-01 06:00:00 15.5 7 Nordeste 17 Nordeste 0 -- -- 34
2018-10-01 05:00:00 15.7 4 Norte 15 Nordeste 0 -- -- 36
2018-10-01 04:00:00 17.1 6 Norte 15 Norte 0 -- -- 34
2018-10-01 03:00:00 17.5 3 Sur 10 Noroeste 0 -- -- 35
2018-10-01 02:00:00 19.5 3 Norte 19 Nordeste 0 -- -- 35
2018-10-01 01:00:00 21.4 10 Nordeste 24 Nordeste 0 -- -- 38
2018-10-01 00:00:00 20.5 4 Nordeste 9 Norte 0 -- -- 44
2018-09-30 23:00:00 23.8 4 Norte 14 Norte 0 -- -- 38
2018-09-30 22:00:00 24.5 8 Nordeste 12 Norte 0 -- -- 36
2018-09-30 21:00:00 25.3 4 Nordeste 8 Nordeste 0 -- -- 33
2018-09-30 20:00:00 27 5 Sur 6 Sur 0 -- -- 31
2018-09-30 19:00:00 29.3 5 Sur 16 Sudoeste 0 -- -- 26
2018-09-30 18:00:00 31 5 Oeste 16 Sudoeste 0 -- -- 24
2018-09-30 17:00:00 31.2 6 Oeste 22 Sudoeste 0 -- -- 24
2018-09-30 16:00:00 30.8 8 Sudoeste 17 Oeste 0 -- -- 26
2018-09-30 15:00:00 29.3 8 Sudoeste 14 Sudoeste 0 -- -- 28
2018-09-30 14:00:00 27.5 3 Sudoeste 12 Sudoeste 0 -- -- 31
2018-09-30 13:00:00 26 5 Norte 10 Noroeste 0 -- -- 34
2018-09-30 12:00:00 23.6 3 Norte 8 Norte 0 -- -- 41
2018-09-30 11:00:00 21 4 Este 8 Nordeste 0 -- -- 44
2018-09-30 10:00:00 17.4 2 Este 6 Este 0 -- -- 59
2018-09-30 09:00:00 13.8 3 Nordeste 8 Este 0 -- -- 68
2018-09-30 08:00:00 12.4 5 Nordeste 7 Nordeste 0 -- -- 70
2018-09-30 07:00:00 11.5 0 Calma 3 Este 0 -- -- 67
2018-09-30 06:00:00 12.1 0 Calma 4 Este 0 -- -- 64
2018-09-30 05:00:00 13.6 0 Calma 6 Nordeste 0 -- -- 56
2018-09-30 04:00:00 14.7 4 Nordeste 7 Este 0 -- -- 56
2018-09-30 03:00:00 14.9 4 Este 15 Sur 0 -- -- 56
2018-09-30 02:00:00 15.7 4 Nordeste 9 Sur 0 -- -- 54
2018-09-30 01:00:00 16.9 5 Este 9 Nordeste 0 -- -- 50
2018-09-30 00:00:00 16.7 0 Calma 4 Nordeste 0 -- -- 48
2018-09-29 23:00:00 18.4 3 Nordeste 5 Nordeste 0 -- -- 48
2018-09-29 22:00:00 20.5 0 Calma 3 Sur 0 -- -- 43
2018-09-29 21:00:00 23.1 0 Calma 4 Sudoeste 0 -- -- 38
2018-09-29 20:00:00 27.2 5 Sudoeste 8 Sudoeste 0 -- -- 30
2018-09-29 19:00:00 29.7 6 Sudoeste 12 Oeste 0 -- -- 26
2018-09-29 18:00:00 30.3 7 Sudoeste 13 Oeste 0 -- -- 25
2018-09-29 17:00:00 30.8 6 Sur 14 Noroeste 0 -- -- 25
2018-09-29 16:00:00 29.9 7 Sur 15 Sur 0 -- -- 27
2018-09-29 15:00:00 28.4 5 Sudoeste 16 Sudoeste 0 -- -- 29
2018-09-29 14:00:00 27.1 6 Sudoeste 13 Oeste 0 -- -- 29
2018-09-29 13:00:00 25.4 6 Oeste 15 Oeste 0 -- -- 28
2018-09-29 12:00:00 23.5 4 Oeste 8 Oeste 0 -- -- 36
2018-09-29 11:00:00 20.3 0 Calma 5 Sur 0 -- -- 49
2018-09-29 10:00:00 16.6 3 Este 7 Este 0 -- -- 56
2018-09-29 09:00:00 12.8 3 Nordeste 6 Nordeste 0 -- -- 66
2018-09-29 08:00:00 12.3 2 Nordeste 8 Nordeste 0 -- -- 63
2018-09-29 07:00:00 13 5 Nordeste 10 Nordeste 0 -- -- 60
2018-09-29 06:00:00 12.6 3 Nordeste 10 Nordeste 0 -- -- 62
2018-09-29 05:00:00 13.5 4 Nordeste 7 Este 0 -- -- 61
2018-09-29 04:00:00 13.3 2 Este 8 Nordeste 0 -- -- 61
2018-09-29 03:00:00 14.9 5 Nordeste 7 Nordeste 0 -- -- 57
2018-09-29 02:00:00 15.2 0 Calma 7 Noroeste 0 -- -- 57
2018-09-29 01:00:00 17.3 5 Nordeste 12 Este 0 -- -- 56
2018-09-29 00:00:00 17.2 5 Nordeste 9 Nordeste 0 -- -- 55
2018-09-28 23:00:00 18.4 0 Calma 5 Nordeste 0 -- -- 53
2018-09-28 22:00:00 20.5 2 Este 3 Este 0 -- -- 52
2018-09-28 21:00:00 23.3 0 Calma 9 Sur 0 -- -- 46
2018-09-28 20:00:00 27.4 4 Sudoeste 12 Sudoeste 0 -- -- 38
2018-09-28 19:00:00 29.7 9 Sudoeste 13 Oeste 0 -- -- 33
2018-09-28 18:00:00 29.8 9 Sudoeste 14 Sudoeste 0 -- -- 32
2018-09-28 17:00:00 29.7 8 Oeste 18 Sudoeste 0 -- -- 33
2018-09-28 16:00:00 29.4 9 Oeste 21 Sudoeste 0 -- -- 36
2018-09-28 15:00:00 28.7 7 Norte 28 Nordeste 0 -- -- 38
2018-09-28 14:00:00 26.5 5 Norte 14 Este 0 -- -- 44
2018-09-28 13:00:00 24.7 6 Nordeste 14 Este 0 -- -- 50
2018-09-28 12:00:00 23.3 6 Sudeste 12 Sur 0 -- -- 55
2018-09-28 11:00:00 21.2 3 Sudeste 7 Nordeste 0 -- -- 59
2018-09-28 10:00:00 18.2 3 Este 6 Este 0 -- -- 65
2018-09-28 09:00:00 14.5 6 Este 9 Este 0 -- -- 75
2018-09-28 08:00:00 13.1 2 Nordeste 8 Nordeste 0 -- -- 77
2018-09-28 07:00:00 13.6 4 Nordeste 7 Este 0 -- -- 76
2018-09-28 06:00:00 13.7 0 Calma 6 Este 0 -- -- 70
2018-09-28 05:00:00 14.3 3 Nordeste 8 Este 0 -- -- 68
2018-09-28 04:00:00 15.7 0 Calma 9 Nordeste 0 -- -- 66
2018-09-28 03:00:00 15.3 4 Este 7 Este 0 -- -- 67
2018-09-28 02:00:00 16.7 0 Calma 3 Nordeste 0 -- -- 65
2018-09-28 01:00:00 17.9 0 Calma 5 Oeste 0 -- -- 61
2018-09-28 00:00:00 18.8 0 Calma 9 Sur 0 -- -- 58
2018-09-27 23:00:00 19.8 3 Sur 9 Sur 0 -- -- 54
2018-09-27 22:00:00 20.8 0 Calma 4 Norte 0 -- -- 49
2018-09-27 21:00:00 23.7 3 Sur 5 Sur 0 -- -- 46
2018-09-27 20:00:00 26.9 2 Este 15 Este 0 -- -- 39
2018-09-27 19:00:00 28.5 10 Este 26 Este 0 -- -- 35
2018-09-27 18:00:00 29.3 4 Este 18 Sudeste 0 -- -- 34
2018-09-27 17:00:00 29.1 3 Norte 15 Norte 0 -- -- 38
2018-09-27 16:00:00 28.4 5 Norte 14 Sudeste 0 -- -- 41
2018-09-27 15:00:00 27 5 Sur 16 Este 0 -- -- 44
2018-09-27 14:00:00 25.8 8 Nordeste 20 Nordeste 0 -- -- 46
2018-09-27 13:00:00 24.7 7 Nordeste 16 Este 0 -- -- 48
2018-09-27 12:00:00 23.1 4 Noroeste 13 Este 0 -- -- 53
2018-09-27 11:00:00 21.3 3 Oeste 9 Nordeste 0 -- -- 61
2018-09-27 10:00:00 18.9 3 Este 7 Este 0 -- -- 69
2018-09-27 09:00:00 15.6 4 Este 9 Este 0 -- -- 79
2018-09-27 08:00:00 14.5 7 Este 10 Este 0 -- -- 82
2018-09-27 07:00:00 14.5 3 Nordeste 8 Nordeste 0 -- -- 81
2018-09-27 06:00:00 14.8 0 Calma 4 Norte 0 -- -- 80
2018-09-27 05:00:00 16.3 2 Norte 6 Nordeste 0 -- -- 75
2018-09-27 04:00:00 17.3 0 Calma 13 Este 0 -- -- 73
2018-09-27 03:00:00 18.5 4 Este 13 Sudeste 0 -- -- 69
2018-09-27 02:00:00 19.4 0 Calma 15 Este 0 -- -- 67
2018-09-27 01:00:00 19.6 4 Este 27 Sudeste 0 -- -- 67
2018-09-27 00:00:00 20.4 12 Este 22 Sudeste 0 -- -- 64
2018-09-26 23:00:00 21.3 4 Sudeste 16 Sudeste 0 -- -- 60
2018-09-26 22:00:00 22 5 Sudoeste 30 Sudeste 0 -- -- 58
2018-09-26 21:00:00 23.1 20 Sudeste 35 Sur 0 -- -- 54
2018-09-26 20:00:00 24.8 19 Sudeste 36 Sudeste 0 -- -- 49
2018-09-26 19:00:00 27.3 19 Sudeste 28 Sudeste 0 -- -- 43
2018-09-26 18:00:00 29.4 15 Sur 24 Sudeste 0 -- -- 40
2018-09-26 17:00:00 29.5 8 Sur 30 Sudeste 0 -- -- 41
2018-09-26 16:00:00 27.5 9 Sur 36 Sur 0 -- -- 46
2018-09-26 15:00:00 26.7 13 Sudeste 25 Sudeste 0 -- -- 49
2018-09-26 14:00:00 26.4 11 Sur 26 Sudeste 0 -- -- 51
2018-09-26 13:00:00 26.4 15 Sur 24 Sudeste 0 -- -- 51
2018-09-26 12:00:00 24.7 9 Sudeste 24 Sudeste 0 -- -- 56
2018-09-26 11:00:00 23.5 15 Sudeste 26 Este 0 -- -- 60
2018-09-26 10:00:00 21.7 8 Este 19 Este 0 -- -- 67
2018-09-26 09:00:00 20.7 5 Este 15 Este 0 -- -- 70
2018-09-26 08:00:00 20.4 9 Este 14 Este 0 -- -- 71
2018-09-26 07:00:00 20.4 6 Nordeste 14 Este 0 -- -- 72
2018-09-26 06:00:00 20.4 5 Nordeste 12 Este 0 -- -- 71
2018-09-26 05:00:00 20.2 8 Nordeste 22 Este 0 -- -- 72
2018-09-26 04:00:00 20.2 7 Nordeste 15 Nordeste 0 -- -- 72
2018-09-26 03:00:00 20.6 7 Este 14 Este 0 -- -- 72
2018-09-26 02:00:00 20.7 12 Sudeste 22 Sudeste 0 -- -- 71
2018-09-26 01:00:00 21.3 9 Sudeste 19 Este 0 -- -- 69
2018-09-26 00:00:00 22.5 6 Sur 24 Sudeste 0 -- -- 64
2018-09-25 23:00:00 23.9 13 Sudeste 37 Este 0 -- -- 60
2018-09-25 22:00:00 25.8 22 Sudeste 33 Sudeste 0 -- -- 54
2018-09-25 21:00:00 26.6 4 Este 7 Nordeste 0 -- -- 43
2018-09-25 20:00:00 30.6 3 Noroeste 10 Oeste 0 -- -- 36
2018-09-25 19:00:00 32.5 0 Calma 13 Oeste 0 -- -- 32
2018-09-25 18:00:00 32.8 6 Sur 19 Sudoeste 0 -- -- 30
2018-09-25 17:00:00 32.5 5 Oeste 20 Oeste 0 -- -- 34
2018-09-25 16:00:00 31.8 10 Oeste 26 Sudoeste 0 -- -- 39
2018-09-25 15:00:00 30.9 7 Norte 16 Norte 0 -- -- 40
2018-09-25 14:00:00 28.7 7 Nordeste 15 Norte 0 -- -- 43
2018-09-25 13:00:00 27.3 4 Nordeste 13 Norte 0 -- -- 41
2018-09-25 12:00:00 24.7 6 Norte 14 Norte 0 -- -- 40
2018-09-25 11:00:00 21.8 5 Norte 13 Noroeste 0 -- -- 40
2018-09-25 10:00:00 18.7 2 Noroeste 8 Nordeste 0 -- -- 41
2018-09-25 09:00:00 16.7 5 Nordeste 15 Norte 0 -- -- 42
2018-09-25 08:00:00 16.1 6 Nordeste 13 Nordeste 0 -- -- 45
2018-09-25 07:00:00 16.8 6 Norte 15 Norte 0 -- -- 46
2018-09-25 06:00:00 17.5 4 Norte 11 Nordeste 0 -- -- 49
2018-09-25 05:00:00 18.6 3 Norte 17 Nordeste 0 -- -- 48
2018-09-25 04:00:00 18.8 3 Norte 8 Norte 0 -- -- 52
2018-09-25 03:00:00 19.9 3 Nordeste 10 Norte 0 -- -- 50
2018-09-25 02:00:00 21.6 6 Norte 14 Norte 0 -- -- 53
2018-09-25 01:00:00 23.4 7 Norte 17 Norte 0 -- -- 50
2018-09-25 00:00:00 24.2 8 Nordeste 17 Nordeste 0 -- -- 49
2018-09-24 23:00:00 26.3 11 Nordeste 19 Nordeste 0 -- -- 45
2018-09-24 22:00:00 26.3 6 Nordeste 10 Nordeste 0 -- -- 43
2018-09-24 21:00:00 28 6 Nordeste 10 Nordeste 0 -- -- 38
2018-09-24 20:00:00 31 5 Nordeste 9 Norte 0 -- -- 33
2018-09-24 19:00:00 33.6 3 Este 16 Nordeste 0 -- -- 29
2018-09-24 18:00:00 34 6 Nordeste 20 Noroeste 0 -- -- 27
2018-09-24 17:00:00 34.6 9 Norte 17 Noroeste 0 -- -- 26
2018-09-24 16:00:00 33.8 7 Noroeste 17 Norte 0 -- -- 24
2018-09-24 15:00:00 32.2 5 Nordeste 21 Nordeste 0 -- -- 29
2018-09-24 14:00:00 31.6 10 Norte 20 Noroeste 0 -- -- 33
2018-09-24 13:00:00 29.8 8 Norte 21 Norte 0 -- -- 40
2018-09-24 12:00:00 26.9 12 Norte 22 Norte 0 -- -- 47
2018-09-24 11:00:00 24.2 10 Nordeste 24 Norte 0 -- -- 53
2018-09-24 10:00:00 21.7 14 Norte 24 Norte 0 -- -- 58
2018-09-24 09:00:00 20.2 10 Norte 21 Norte 0 -- -- 62
2018-09-24 08:00:00 19.6 9 Norte 21 Norte 0 -- -- 64
2018-09-24 07:00:00 20.2 10 Nordeste 26 Norte 0 -- -- 63
2018-09-24 06:00:00 20.7 7 Nordeste 25 Norte 0 -- -- 62
2018-09-24 05:00:00 20.9 6 Norte 18 Nordeste 0 -- -- 61
2018-09-24 04:00:00 22.1 7 Norte 18 Nordeste 0 -- -- 54
2018-09-24 03:00:00 23.4 11 Nordeste 24 Nordeste 0 -- -- 45
2018-09-24 02:00:00 23.8 11 Nordeste 24 Nordeste 0 -- -- 39
2018-09-24 01:00:00 24.1 8 Nordeste 18 Norte 0 -- -- 36
2018-09-24 00:00:00 23.9 6 Nordeste 12 Nordeste 0 -- -- 36
2018-09-23 23:00:00 24 6 Nordeste 9 Nordeste 0 -- -- 38
2018-09-23 22:00:00 25.8 5 Nordeste 15 Nordeste 0 -- -- 36
2018-09-23 21:00:00 27 0 Calma 7 Oeste 0 -- -- 39
2018-09-23 20:00:00 32.4 0 Calma 9 Sudoeste 0 -- -- 29
2018-09-23 19:00:00 34.9 6 Sur 12 Sudoeste 0 -- -- 24
2018-09-23 18:00:00 34.8 8 Sudoeste 15 Oeste 0 -- -- 23
2018-09-23 17:00:00 34.9 8 Norte 19 Sudoeste 0 -- -- 24
2018-09-23 16:00:00 34.5 6 Sudoeste 17 Sudoeste 0 -- -- 25
2018-09-23 15:00:00 33.9 6 Sudoeste 15 Sudoeste 0 -- -- 27
2018-09-23 14:00:00 32.2 4 Este 12 Sudoeste 0 -- -- 31
2018-09-23 13:00:00 29.8 4 Oeste 12 Oeste 0 -- -- 33
2018-09-23 12:00:00 28 3 Norte 8 Norte 0 -- -- 40
2018-09-23 11:00:00 24.5 6 Este 13 Este 0 -- -- 47
2018-09-23 10:00:00 21.5 2 Norte 6 Este 0 -- -- 52
2018-09-23 09:00:00 18.2 4 Nordeste 9 Este 0 -- -- 60
2018-09-23 08:00:00 16.2 3 Este 8 Este 0 -- -- 62
2018-09-23 07:00:00 17.2 4 Nordeste 8 Este 0 -- -- 60
2018-09-23 06:00:00 16.8 4 Este 6 Sudeste 0 -- -- 60
2018-09-23 05:00:00 18.6 0 Calma 12 Nordeste 0 -- -- 53
2018-09-23 04:00:00 21.2 7 Nordeste 14 Este 0 -- -- 46
2018-09-23 03:00:00 20.5 6 Este 10 Nordeste 0 -- -- 51
2018-09-23 02:00:00 20.6 8 Este 12 Este 0 -- -- 53
2018-09-23 01:00:00 20.9 4 Nordeste 8 Este 0 -- -- 52
2018-09-23 00:00:00 22 5 Nordeste 11 Nordeste 0 -- -- 48
2018-09-22 23:00:00 22.6 0 Calma 4 Nordeste 0 -- -- 48
2018-09-22 22:00:00 24.8 0 Calma 3 Este 0 -- -- 45
2018-09-22 21:00:00 27.1 0 Calma 5 Sur 0 -- -- 41
2018-09-22 20:00:00 31 2 Sudoeste 12 Oeste 0 -- -- 32
2018-09-22 19:00:00 33.5 8 Sudoeste 17 Oeste 0 -- -- 27
2018-09-22 18:00:00 34.4 8 Sudoeste 17 Sudoeste 0 -- -- 25
2018-09-22 17:00:00 34.4 9 Sur 21 Oeste 0 -- -- 26
2018-09-22 16:00:00 33.9 10 Sudoeste 24 Sudoeste 0 -- -- 27
2018-09-22 15:00:00 32.9 6 Sudoeste 17 Sudoeste 0 -- -- 31
2018-09-22 14:00:00 31.7 4 Sudeste 12 Sur 0 -- -- 35
2018-09-22 13:00:00 29.3 5 Sudoeste 10 Oeste 0 -- -- 39
2018-09-22 12:00:00 27.2 3 Sur 6 Sudoeste 0 -- -- 44
2018-09-22 11:00:00 24.5 2 Sudeste 8 Este 0 -- -- 50
2018-09-22 10:00:00 21.7 4 Nordeste 6 Nordeste 0 -- -- 57
2018-09-22 09:00:00 18.5 4 Este 8 Este 0 -- -- 65
2018-09-22 08:00:00 16.8 4 Este 5 Este 0 -- -- 69
2018-09-22 07:00:00 18.1 2 Este 9 Este 0 -- -- 63
2018-09-22 06:00:00 19.2 4 Nordeste 12 Nordeste 0 -- -- 59
2018-09-22 05:00:00 18.7 5 Este 12 Nordeste 0 -- -- 60
2018-09-22 04:00:00 20.3 4 Este 10 Nordeste 0 -- -- 55
2018-09-22 03:00:00 21.3 0 Calma 13 Norte 0 -- -- 51
2018-09-22 02:00:00 20.1 0 Calma 5 Este 0 -- -- 59
2018-09-22 01:00:00 22 3 Este 6 Nordeste 0 -- -- 50
2018-09-22 00:00:00 22.5 4 Este 8 Este 0 -- -- 49